Time;durP1;ratioP1;P1;durP2;ratioP2;P2;SDS_P1;SDS_P2;PMS_P1;PMS_P2;Temp;Humidity;BMP_temperature;BMP_pressure;BME280_temperature;BME280_humidity;BME280_pressure;Samples;Min_cycle;Max_cycle;Signal;HPM_P1;HPM_P2
2021/12/17 00:00:21;;;;;;;39.15;13.10;;;8.80;99.90;;;;;;5043109;28;20033;-69
2021/12/17 00:05:45;;;;;;;31.50;12.80;;;8.80;99.90;;;;;;5033943;28;20096;-70
2021/12/17 00:08:12;;;;;;;44.75;13.77;;;8.80;99.90;;;;;;5035765;28;20080;-70
2021/12/17 00:10:38;;;;;;;31.05;12.85;;;8.70;99.90;;;;;;5046144;28;20052;-70
2021/12/17 00:13:04;;;;;;;31.63;12.95;;;8.70;99.90;;;;;;5040492;28;20076;-70
2021/12/17 00:15:30;;;;;;;30.20;13.02;;;8.70;99.90;;;;;;5044543;28;20427;-69
2021/12/17 00:18:01;;;;;;;28.80;12.25;;;8.70;99.90;;;;;;5029553;28;20039;-70
2021/12/17 00:20:50;;;;;;;32.22;13.32;;;8.70;99.90;;;;;;5037559;28;20434;-70
2021/12/17 00:40:23;;;;;;;33.00;13.13;;;8.70;99.90;;;;;;5041776;28;20059;-70
2021/12/17 00:53:16;;;;;;;30.25;12.30;;;8.70;99.90;;;;;;5034683;28;20205;-69
2021/12/17 00:55:42;;;;;;;25.02;10.75;;;8.70;99.90;;;;;;5015561;28;20545;-68
2021/12/17 00:58:07;;;;;;;24.50;9.65;;;8.70;99.90;;;;;;5036495;28;20136;-69
2021/12/17 01:00:33;;;;;;;21.38;9.63;;;8.70;99.90;;;;;;5039912;28;20140;-69
2021/12/17 01:02:59;;;;;;;22.63;9.90;;;8.70;99.90;;;;;;5034733;28;20041;-68
2021/12/17 01:05:29;;;;;;;26.70;10.70;;;8.60;99.90;;;;;;5038853;28;20449;-70
2021/12/17 01:07:57;;;;;;;24.52;10.77;;;8.60;99.90;;;;;;5035485;28;20080;-70
2021/12/17 01:10:27;;;;;;;19.98;9.32;;;8.60;99.90;;;;;;5031268;28;20049;-70
2021/12/17 01:12:54;;;;;;;22.27;9.93;;;8.60;99.90;;;;;;5035564;28;20045;-69
2021/12/17 01:15:20;;;;;;;25.15;11.27;;;8.50;99.90;;;;;;5033158;28;20044;-69
2021/12/17 01:17:50;;;;;;;22.85;10.45;;;8.50;99.90;;;;;;5033065;28;20045;-69
2021/12/17 01:20:29;;;;;;;31.38;11.07;;;8.50;99.90;;;;;;5017625;28;20092;-69
2021/12/17 01:36:03;;;;;;;22.10;10.68;;;8.60;99.90;;;;;;5030902;28;20079;-71
2021/12/17 01:39:42;;;;;;;20.85;10.48;;;8.60;99.90;;;;;;5050751;28;20041;-70
2021/12/17 01:41:53;;;;;;;25.35;10.88;;;8.60;99.90;;;;;;5030833;28;20041;-70
2021/12/17 01:44:19;;;;;;;19.80;10.35;;;8.60;99.90;;;;;;5030957;28;20132;-70
2021/12/17 01:46:49;;;;;;;26.52;10.57;;;8.60;99.90;;;;;;5033742;28;20650;-70
2021/12/17 01:55:40;;;;;;;27.23;11.38;;;8.60;99.90;;;;;;5031197;28;20108;-70
2021/12/17 02:00:22;;;;;;;30.38;11.85;;;8.60;99.90;;;;;;5034846;28;20072;-70
2021/12/17 02:02:52;;;;;;;33.83;12.45;;;8.60;99.90;;;;;;5037625;28;20053;-70
2021/12/17 02:05:18;;;;;;;27.10;11.23;;;8.60;99.90;;;;;;5037541;28;20182;-69
2021/12/17 02:07:46;;;;;;;26.55;10.43;;;8.70;99.90;;;;;;5040599;28;20052;-69
2021/12/17 02:13:09;;;;;;;27.20;11.23;;;8.60;99.90;;;;;;5035393;28;20072;-69
2021/12/17 02:22:03;;;;;;;26.73;11.25;;;8.60;99.90;;;;;;5035625;28;20136;-69
2021/12/17 02:29:54;;;;;;;28.25;12.10;;;8.60;99.90;;;;;;5035285;28;20053;-69
2021/12/17 02:32:22;;;;;;;35.15;13.15;;;8.60;99.90;;;;;;5038827;28;20121;-69
2021/12/17 02:37:17;;;;;;;27.80;12.30;;;8.60;99.90;;;;;;5039135;28;20515;-69
2021/12/17 02:47:38;;;;;;;24.17;11.27;;;8.60;99.90;;;;;;5040095;28;20057;-69
2021/12/17 02:50:05;;;;;;;26.10;11.77;;;8.50;99.90;;;;;;5041655;28;20453;-69
2021/12/17 02:52:34;;;;;;;27.30;10.85;;;8.60;99.90;;;;;;5032429;28;20081;-69
2021/12/17 02:55:01;;;;;;;24.75;11.05;;;8.60;99.90;;;;;;5034681;28;20463;-69
2021/12/17 02:57:27;;;;;;;31.23;12.30;;;8.60;99.90;;;;;;5038305;28;20052;-69
2021/12/17 02:59:54;;;;;;;28.20;12.07;;;8.60;99.90;;;;;;5042125;28;20044;-70
2021/12/17 03:02:26;;;;;;;27.27;12.40;;;8.60;99.90;;;;;;5037750;28;20045;-70
2021/12/17 03:04:53;;;;;;;26.40;11.85;;;8.60;99.90;;;;;;5030576;28;20044;-70
2021/12/17 03:07:19;;;;;;;30.35;12.30;;;8.60;99.90;;;;;;5035264;28;20048;-71
2021/12/17 03:12:27;;;;;;;36.70;13.85;;;8.60;99.90;;;;;;5026914;28;20057;-71
2021/12/17 03:25:55;;;;;;;38.75;13.63;;;8.60;99.90;;;;;;5031321;28;20053;-71
2021/12/17 03:28:20;;;;;;;35.25;14.05;;;8.70;99.90;;;;;;5034827;28;20129;-70
2021/12/17 03:30:47;;;;;;;34.08;13.32;;;8.60;99.90;;;;;;5042847;28;20055;-71
2021/12/17 03:33:13;;;;;;;40.13;14.60;;;8.60;99.90;;;;;;5037476;28;20072;-70
2021/12/17 03:35:38;;;;;;;31.60;13.68;;;8.70;99.90;;;;;;5031229;28;20068;-71
2021/12/17 03:38:05;;;;;;;34.85;12.77;;;8.60;99.90;;;;;;5035894;28;20114;-71
2021/12/17 03:40:32;;;;;;;35.08;12.82;;;8.60;99.90;;;;;;5035759;28;20045;-71
2021/12/17 03:43:04;;;;;;;28.23;12.20;;;8.60;99.90;;;;;;5034003;28;21683;-71
2021/12/17 03:45:30;;;;;;;27.83;11.40;;;8.60;99.90;;;;;;5042411;28;20045;-70
2021/12/17 03:47:56;;;;;;;20.55;10.02;;;8.60;99.90;;;;;;5035357;28;20162;-70
2021/12/17 03:50:23;;;;;;;24.95;12.02;;;8.60;99.90;;;;;;5046690;28;20055;-71
2021/12/17 03:52:49;;;;;;;25.38;11.05;;;8.60;99.90;;;;;;5040046;28;20041;-70
2021/12/17 03:55:15;;;;;;;22.60;10.15;;;8.70;99.90;;;;;;5035113;28;20048;-70
2021/12/17 03:57:41;;;;;;;27.80;11.00;;;8.60;99.90;;;;;;5032763;28;20041;-70
2021/12/17 04:00:09;;;;;;;20.42;9.25;;;8.60;99.90;;;;;;5038253;28;20087;-70
2021/12/17 04:02:35;;;;;;;19.73;9.20;;;8.60;99.90;;;;;;5036835;28;20088;-70
2021/12/17 04:05:02;;;;;;;19.33;9.02;;;8.60;99.90;;;;;;5043194;28;20068;-70
2021/12/17 04:07:27;;;;;;;18.98;9.40;;;8.60;99.90;;;;;;5033574;28;21189;-70
2021/12/17 04:09:53;;;;;;;20.60;9.45;;;8.60;99.90;;;;;;5045054;28;20065;-70
2021/12/17 04:12:23;;;;;;;18.10;8.75;;;8.60;99.90;;;;;;5034820;28;20050;-70
2021/12/17 04:14:49;;;;;;;18.02;8.73;;;8.60;99.90;;;;;;5031375;28;20056;-70
2021/12/17 04:17:22;;;;;;;17.10;8.60;;;8.60;99.90;;;;;;5043672;28;20052;-70
2021/12/17 04:19:48;;;;;;;18.50;8.20;;;8.60;99.90;;;;;;5039052;28;20063;-71
2021/12/17 04:22:14;;;;;;;17.83;9.27;;;8.60;99.90;;;;;;5032072;28;20476;-71
2021/12/17 04:24:40;;;;;;;19.20;9.82;;;8.60;99.90;;;;;;5040116;28;20110;-71
2021/12/17 04:27:06;;;;;;;16.27;8.30;;;8.60;99.90;;;;;;5041531;28;20060;-70
2021/12/17 04:29:33;;;;;;;19.88;8.27;;;8.60;99.90;;;;;;5038500;28;20499;-70
2021/12/17 04:31:59;;;;;;;20.58;8.63;;;8.60;99.90;;;;;;5044514;28;20042;-70
2021/12/17 04:34:25;;;;;;;18.10;8.68;;;8.60;99.90;;;;;;5038999;28;20048;-70
2021/12/17 04:36:54;;;;;;;16.30;8.80;;;8.60;99.90;;;;;;5042323;28;20037;-70
2021/12/17 04:39:22;;;;;;;19.63;9.20;;;8.50;99.90;;;;;;5038261;28;20064;-70
2021/12/17 04:41:56;;;;;;;19.70;9.43;;;8.50;99.90;;;;;;5037457;28;20085;-70
2021/12/17 04:44:26;;;;;;;17.80;8.50;;;8.60;99.90;;;;;;5047018;28;20045;-70
2021/12/17 04:57:17;;;;;;;18.38;9.15;;;8.60;99.90;;;;;;5035019;28;20299;-70
2021/12/17 04:58:01;;;;;;;17.88;8.63;;;8.60;99.90;;;;;;5043826;28;20049;-69
2021/12/17 05:00:29;;;;;;;18.85;9.57;;;8.60;99.90;;;;;;5043746;28;20373;-70
2021/12/17 05:02:57;;;;;;;17.17;8.73;;;8.60;99.90;;;;;;5045436;28;20467;-69
2021/12/17 05:05:28;;;;;;;20.45;9.82;;;8.60;99.90;;;;;;5045043;28;20037;-70
2021/12/17 05:07:59;;;;;;;22.45;9.93;;;8.60;99.90;;;;;;5035337;28;20034;-70
2021/12/17 05:10:53;;;;;;;21.95;9.60;;;8.60;99.90;;;;;;5039717;28;20072;-70
2021/12/17 05:18:57;;;;;;;20.10;9.32;;;8.60;99.90;;;;;;5032728;28;20052;-71
2021/12/17 05:21:24;;;;;;;21.13;9.65;;;8.60;99.90;;;;;;5033644;28;20061;-70
2021/12/17 05:23:51;;;;;;;21.52;10.07;;;8.70;99.90;;;;;;5039310;28;20056;-70
2021/12/17 05:26:19;;;;;;;19.80;9.70;;;8.60;99.90;;;;;;5034813;28;20068;-69
2021/12/17 05:28:46;;;;;;;19.77;9.52;;;8.70;99.90;;;;;;5031462;28;20171;-69
2021/12/17 05:31:14;;;;;;;18.80;9.38;;;8.70;99.90;;;;;;5034492;28;20038;-69
2021/12/17 05:33:40;;;;;;;21.45;9.50;;;8.70;99.90;;;;;;5033324;28;20147;-70
2021/12/17 05:36:06;;;;;;;17.38;8.60;;;8.70;99.90;;;;;;5033595;28;20088;-70
2021/12/17 05:38:32;;;;;;;19.55;9.70;;;8.70;99.90;;;;;;5041268;28;20033;-70
2021/12/17 05:40:57;;;;;;;20.23;9.43;;;8.70;99.90;;;;;;5051841;28;20593;-70
2021/12/17 05:43:24;;;;;;;17.83;8.30;;;8.70;99.90;;;;;;5035677;28;20037;-70
2021/12/17 05:48:23;;;;;;;18.55;8.82;;;8.80;99.90;;;;;;5037540;28;20056;-70
2021/12/17 05:50:51;;;;;;;18.42;9.55;;;8.70;99.90;;;;;;5045408;28;20041;-69
2021/12/17 05:53:17;;;;;;;22.10;9.82;;;8.80;99.90;;;;;;5033323;28;20038;-70
2021/12/17 05:55:43;;;;;;;20.90;9.10;;;8.80;99.90;;;;;;5039434;28;20048;-70
2021/12/17 05:58:09;;;;;;;20.92;10.02;;;8.70;99.90;;;;;;5043039;28;20124;-70
2021/12/17 06:00:38;;;;;;;19.08;9.38;;;8.70;99.90;;;;;;5031767;28;20497;-71
2021/12/17 06:03:04;;;;;;;18.52;8.55;;;8.80;99.90;;;;;;5046386;28;20053;-70
2021/12/17 06:05:29;;;;;;;19.77;9.90;;;8.80;99.90;;;;;;5039466;28;20049;-69
2021/12/17 06:07:58;;;;;;;21.33;9.48;;;8.80;99.90;;;;;;5033082;28;20049;-70
2021/12/17 06:10:23;;;;;;;22.98;9.98;;;8.80;99.90;;;;;;5031668;28;20033;-71
2021/12/17 06:12:49;;;;;;;19.77;9.15;;;8.70;99.90;;;;;;5014974;28;20047;-71
2021/12/17 06:15:17;;;;;;;19.67;9.27;;;8.70;99.90;;;;;;5032173;28;20049;-71
2021/12/17 06:17:43;;;;;;;22.10;9.30;;;8.70;99.90;;;;;;5038172;28;20040;-71
2021/12/17 06:20:11;;;;;;;21.80;9.60;;;8.70;99.90;;;;;;5032670;28;20064;-71
2021/12/17 06:22:37;;;;;;;20.67;9.02;;;8.70;99.90;;;;;;5039307;28;20064;-70
2021/12/17 06:25:05;;;;;;;17.92;9.52;;;8.70;99.90;;;;;;5038305;28;20400;-69
2021/12/17 06:27:31;;;;;;;22.13;9.90;;;8.70;99.90;;;;;;5029145;28;20080;-70
2021/12/17 06:29:57;;;;;;;18.40;8.90;;;8.70;99.90;;;;;;5029694;28;20468;-69
2021/12/17 06:32:24;;;;;;;20.52;8.85;;;8.70;99.90;;;;;;5051139;28;20097;-67
2021/12/17 06:34:50;;;;;;;19.20;8.60;;;8.70;99.90;;;;;;5038751;28;20054;-69
2021/12/17 06:37:16;;;;;;;19.35;9.32;;;8.70;99.90;;;;;;5033368;28;20049;-69
2021/12/17 06:39:42;;;;;;;19.42;8.82;;;8.70;99.90;;;;;;5043457;28;20405;-69
2021/12/17 06:42:08;;;;;;;18.85;9.05;;;8.70;99.90;;;;;;5041804;28;20053;-69
2021/12/17 06:44:34;;;;;;;17.77;7.80;;;8.70;99.90;;;;;;5029680;28;20064;-67
2021/12/17 06:54:54;;;;;;;16.90;8.07;;;8.70;99.90;;;;;;5028606;28;20124;-71
2021/12/17 07:34:06;;;;;;;23.30;9.55;;;8.40;99.90;;;;;;5032803;28;20053;-69
2021/12/17 07:36:42;;;;;;;24.30;10.25;;;8.50;99.90;;;;;;5039874;28;20053;-69
2021/12/17 07:39:08;;;;;;;21.13;9.80;;;8.40;99.90;;;;;;5032952;28;20475;-69
2021/12/17 07:41:34;;;;;;;21.00;9.00;;;8.50;99.90;;;;;;5033442;28;20131;-70
2021/12/17 07:44:01;;;;;;;20.88;9.50;;;8.50;99.90;;;;;;5050533;28;20037;-69
2021/12/17 07:46:27;;;;;;;17.13;8.10;;;8.40;99.90;;;;;;5036599;28;20060;-69
2021/12/17 07:48:53;;;;;;;19.05;9.23;;;8.40;99.90;;;;;;5047967;28;20041;-69
2021/12/17 07:51:21;;;;;;;20.35;9.00;;;8.40;99.90;;;;;;5048346;28;20075;-69
2021/12/17 07:53:47;;;;;;;18.10;9.10;;;8.40;99.90;;;;;;5029261;28;20048;-69
2021/12/17 07:56:16;;;;;;;22.13;10.00;;;8.40;99.90;;;;;;5036368;28;20051;-69
2021/12/17 07:58:42;;;;;;;19.80;8.73;;;8.40;99.90;;;;;;5040412;28;20492;-69
2021/12/17 08:01:10;;;;;;;25.85;10.13;;;8.40;99.90;;;;;;5044014;28;20041;-70
2021/12/17 08:03:37;;;;;;;21.20;9.68;;;8.40;99.90;;;;;;5034542;28;20488;-70
2021/12/17 08:06:03;;;;;;;19.08;9.50;;;8.40;99.90;;;;;;5032189;28;20045;-70
2021/12/17 08:08:29;;;;;;;20.52;9.93;;;8.40;99.90;;;;;;5032556;28;20037;-70
2021/12/17 08:10:55;;;;;;;20.80;9.20;;;8.40;99.90;;;;;;5041866;28;20041;-70
2021/12/17 08:13:27;;;;;;;17.67;8.65;;;8.40;99.90;;;;;;5040386;28;20048;-69
2021/12/17 08:16:11;;;;;;;23.15;10.10;;;8.40;99.90;;;;;;5033786;28;20063;-70
2021/12/17 08:18:56;;;;;;;24.83;9.97;;;8.40;99.90;;;;;;5032279;28;20041;-70
2021/12/17 08:24:43;;;;;;;20.73;9.35;;;8.40;99.90;;;;;;5046548;28;20097;-69
2021/12/17 08:27:10;;;;;;;17.98;9.40;;;8.50;99.90;;;;;;5037677;28;20088;-69
2021/12/17 08:29:51;;;;;;;22.05;9.50;;;8.40;99.90;;;;;;5031650;28;20049;-68
2021/12/17 08:32:16;;;;;;;19.67;9.00;;;8.50;99.90;;;;;;5038124;28;20053;-69
2021/12/17 08:34:42;;;;;;;17.63;8.82;;;8.50;99.90;;;;;;5037255;28;20180;-69
2021/12/17 08:37:07;;;;;;;19.33;9.27;;;8.50;99.90;;;;;;5031602;28;20037;-69
2021/12/17 08:39:33;;;;;;;17.92;9.30;;;8.60;99.90;;;;;;5036134;28;20051;-69
2021/12/17 08:42:00;;;;;;;20.05;9.90;;;8.60;99.90;;;;;;5056378;28;20058;-69
2021/12/17 08:44:26;;;;;;;19.85;9.68;;;8.70;99.90;;;;;;5036199;28;20048;-69
2021/12/17 08:46:51;;;;;;;18.70;9.85;;;8.70;99.90;;;;;;5037719;28;20037;-69
2021/12/17 08:49:17;;;;;;;17.70;9.48;;;8.70;99.90;;;;;;5031438;28;20153;-69
2021/12/17 08:51:44;;;;;;;16.95;8.82;;;8.70;99.90;;;;;;5038217;28;20080;-69
2021/12/17 08:54:10;;;;;;;19.92;9.30;;;8.70;99.90;;;;;;5038706;28;20049;-69
2021/12/17 08:56:42;;;;;;;18.08;8.85;;;8.70;99.90;;;;;;5030734;28;20370;-69
2021/12/17 08:59:09;;;;;;;20.50;9.13;;;8.70;99.90;;;;;;5034738;28;20586;-69
2021/12/17 09:01:35;;;;;;;23.42;9.73;;;8.70;99.90;;;;;;5047581;28;20045;-69
2021/12/17 09:04:01;;;;;;;20.05;10.00;;;8.80;99.90;;;;;;5035231;28;20056;-71
2021/12/17 09:06:28;;;;;;;20.25;9.02;;;8.80;99.90;;;;;;5041440;28;20387;-70
2021/12/17 09:08:55;;;;;;;20.08;8.95;;;8.80;99.90;;;;;;5037857;28;20477;-70
2021/12/17 09:11:28;;;;;;;19.10;9.15;;;8.80;99.90;;;;;;5034048;28;20089;-70
2021/12/17 09:13:56;;;;;;;18.08;9.38;;;8.80;99.90;;;;;;5044760;28;20060;-69
2021/12/17 09:16:22;;;;;;;21.33;10.15;;;8.80;99.90;;;;;;5034123;28;20080;-68
2021/12/17 09:18:49;;;;;;;21.80;10.23;;;8.80;99.90;;;;;;5046175;28;20084;-70
2021/12/17 09:21:15;;;;;;;16.83;8.60;;;8.80;99.90;;;;;;5045803;28;20045;-69
2021/12/17 09:23:41;;;;;;;18.50;9.18;;;8.80;99.90;;;;;;5041046;28;20373;-68
2021/12/17 09:26:06;;;;;;;19.85;10.07;;;8.90;99.90;;;;;;5046369;28;20083;-69
2021/12/17 09:28:33;;;;;;;22.27;10.50;;;8.90;99.90;;;;;;5030930;28;20373;-69
2021/12/17 09:30:59;;;;;;;20.23;9.48;;;8.80;99.90;;;;;;5043602;28;20045;-69
2021/12/17 09:33:25;;;;;;;19.98;9.50;;;8.80;99.90;;;;;;5047216;28;20191;-69
2021/12/17 09:35:52;;;;;;;20.75;8.95;;;8.80;99.90;;;;;;5047068;28;20052;-69
2021/12/17 09:38:19;;;;;;;17.88;8.73;;;8.80;99.90;;;;;;5029375;28;20103;-70
2021/12/17 09:40:45;;;;;;;17.38;8.70;;;8.90;99.90;;;;;;5049041;28;20437;-70
2021/12/17 09:43:11;;;;;;;21.70;9.18;;;8.90;99.90;;;;;;5048205;28;20496;-70
2021/12/17 09:45:37;;;;;;;18.70;8.98;;;8.90;99.90;;;;;;5037116;28;20045;-69
2021/12/17 09:48:03;;;;;;;18.58;8.63;;;8.90;99.90;;;;;;5049254;28;20500;-69
2021/12/17 09:50:29;;;;;;;17.58;8.45;;;8.90;99.90;;;;;;5055740;28;20049;-70
2021/12/17 09:52:55;;;;;;;18.05;8.65;;;8.90;99.90;;;;;;5031125;28;20052;-69
2021/12/17 09:55:21;;;;;;;20.63;9.70;;;9.00;99.90;;;;;;5044216;28;20387;-69
2021/12/17 09:57:47;;;;;;;19.95;9.23;;;9.00;99.90;;;;;;5049152;28;20045;-69
2021/12/17 10:00:19;;;;;;;18.70;8.95;;;9.00;99.90;;;;;;5041920;28;20422;-70
2021/12/17 10:02:46;;;;;;;18.55;8.95;;;9.00;99.90;;;;;;5046073;28;20080;-69
2021/12/17 10:05:21;;;;;;;20.45;9.13;;;9.10;99.90;;;;;;5042324;28;20056;-69
2021/12/17 10:07:59;;;;;;;17.00;8.30;;;9.10;99.90;;;;;;5048039;28;20084;-69
2021/12/17 10:10:33;;;;;;;18.92;8.80;;;9.10;99.90;;;;;;5048915;28;20496;-70
2021/12/17 10:13:18;;;;;;;16.92;8.40;;;9.10;99.90;;;;;;5040375;28;20465;-69
2021/12/17 10:15:49;;;;;;;18.13;8.18;;;9.10;99.90;;;;;;5028528;28;20045;-70
2021/12/17 10:18:15;;;;;;;19.65;9.00;;;9.20;99.90;;;;;;5028166;28;20056;-70
2021/12/17 10:20:59;;;;;;;19.65;9.00;;;9.20;99.90;;;;;;5030544;28;20760;-70
2021/12/17 10:23:26;;;;;;;17.73;8.68;;;9.20;99.90;;;;;;5028569;28;20370;-70
2021/12/17 10:25:52;;;;;;;16.02;7.85;;;9.20;99.90;;;;;;5031140;28;20061;-70
2021/12/17 10:28:19;;;;;;;18.15;8.77;;;9.30;99.90;;;;;;5049183;28;20064;-70
2021/12/17 10:30:48;;;;;;;17.20;8.93;;;9.30;99.90;;;;;;5040953;28;20456;-70
2021/12/17 10:33:18;;;;;;;16.63;7.82;;;9.30;99.90;;;;;;5036002;28;20040;-70
2021/12/17 10:35:47;;;;;;;18.73;8.63;;;9.40;99.90;;;;;;5032659;28;20215;-71
2021/12/17 10:38:16;;;;;;;18.25;8.73;;;9.40;99.90;;;;;;5031700;28;20049;-70
2021/12/17 10:40:50;;;;;;;17.88;8.82;;;9.40;99.90;;;;;;5037780;28;20667;-71
2021/12/17 10:43:27;;;;;;;21.63;8.70;;;9.40;99.90;;;;;;5023497;28;20068;-71
2021/12/17 10:46:11;;;;;;;16.92;8.55;;;9.40;99.90;;;;;;5053727;28;20103;-71
2021/12/17 10:54:11;;;;;;;16.60;8.60;;;9.40;99.90;;;;;;5033052;28;20115;-70
2021/12/17 10:56:39;;;;;;;15.63;8.02;;;9.40;99.90;;;;;;5046976;28;20435;-71
2021/12/17 10:59:08;;;;;;;17.63;8.43;;;9.40;99.90;;;;;;5056924;28;20047;-70
2021/12/17 11:01:45;;;;;;;17.02;8.43;;;9.50;99.90;;;;;;5039846;28;20059;-71
2021/12/17 11:04:16;;;;;;;16.38;8.07;;;9.40;99.90;;;;;;5046934;28;20048;-71
2021/12/17 11:06:45;;;;;;;15.52;7.90;;;9.40;99.90;;;;;;5039101;28;20051;-71
2021/12/17 11:09:10;;;;;;;15.35;7.95;;;9.50;99.90;;;;;;5031870;28;20057;-71
2021/12/17 11:11:41;;;;;;;15.70;7.60;;;9.50;99.90;;;;;;5034851;28;20064;-70
2021/12/17 11:14:07;;;;;;;17.73;8.60;;;9.50;99.90;;;;;;5037362;28;20053;-69
2021/12/17 11:16:36;;;;;;;15.65;8.13;;;9.50;99.90;;;;;;5042831;28;20079;-69
2021/12/17 11:19:02;;;;;;;15.55;7.68;;;9.60;99.90;;;;;;5045096;28;20029;-70
2021/12/17 11:21:27;;;;;;;14.93;8.27;;;9.60;99.90;;;;;;5030494;28;20115;-70
2021/12/17 11:23:53;;;;;;;16.80;8.57;;;9.60;99.90;;;;;;5036246;28;20113;-69
2021/12/17 11:26:19;;;;;;;13.73;7.85;;;9.60;99.90;;;;;;5051832;28;20091;-69
2021/12/17 11:28:46;;;;;;;16.83;8.82;;;9.60;99.90;;;;;;5046931;28;20411;-69
2021/12/17 11:31:12;;;;;;;13.48;7.85;;;9.60;99.90;;;;;;5041442;28;20052;-70
2021/12/17 11:33:38;;;;;;;15.80;8.30;;;9.60;99.90;;;;;;5033318;28;20294;-71
2021/12/17 11:36:04;;;;;;;15.55;7.80;;;9.60;99.90;;;;;;5032206;28;20166;-71
2021/12/17 11:38:51;;;;;;;15.35;7.80;;;9.60;99.90;;;;;;5037741;28;20423;-70
2021/12/17 11:41:26;;;;;;;15.18;8.07;;;9.60;99.90;;;;;;5039538;28;20068;-71
2021/12/17 11:43:58;;;;;;;;;;;9.70;99.90;;;;;;5042026;28;20363;-71
2021/12/17 11:46:32;;;;;;;13.65;7.25;;;9.60;99.90;;;;;;5039153;28;20383;-70
2021/12/17 11:49:13;;;;;;;15.00;7.73;;;9.70;99.90;;;;;;5041963;28;20048;-70
2021/12/17 11:51:39;;;;;;;15.18;8.50;;;9.70;99.90;;;;;;5032429;28;20771;-70
2021/12/17 11:54:09;;;;;;;14.15;8.07;;;9.70;99.90;;;;;;5046760;28;20155;-70
2021/12/17 11:56:49;;;;;;;16.50;8.52;;;9.70;99.90;;;;;;5032186;28;20049;-70
2021/12/17 11:59:27;;;;;;;16.15;9.25;;;9.70;99.90;;;;;;5036715;28;20085;-70
2021/12/17 12:02:15;;;;;;;17.05;9.23;;;9.80;99.90;;;;;;5049436;28;20045;-70
2021/12/17 12:04:59;;;;;;;13.80;8.07;;;9.80;99.90;;;;;;5033305;28;20061;-70
2021/12/17 12:07:24;;;;;;;15.23;8.95;;;9.80;99.90;;;;;;5043048;28;20087;-70
2021/12/17 12:10:13;;;;;;;14.32;8.73;;;9.90;99.90;;;;;;5028928;28;20111;-70
2021/12/17 12:12:41;;;;;;;12.35;7.82;;;9.90;99.90;;;;;;5036263;28;20061;-70
2021/12/17 12:15:23;;;;;;;13.93;7.93;;;10.00;99.90;;;;;;5039737;28;20106;-70
2021/12/17 12:17:58;;;;;;;13.45;6.97;;;10.00;99.90;;;;;;5038144;28;20057;-70
2021/12/17 12:20:44;;;;;;;17.95;7.95;;;9.90;99.90;;;;;;5031207;28;20092;-70
2021/12/17 12:23:18;;;;;;;13.55;7.65;;;10.00;99.90;;;;;;5041993;28;20064;-69
2021/12/17 12:26:14;;;;;;;14.93;7.70;;;10.00;99.90;;;;;;5031246;28;20041;-70
2021/12/17 12:28:48;;;;;;;15.00;7.32;;;10.00;99.90;;;;;;5049745;28;20060;-70
2021/12/17 12:31:17;;;;;;;12.43;7.25;;;10.00;99.90;;;;;;5037962;28;20041;-69
2021/12/17 12:34:01;;;;;;;11.23;7.10;;;10.00;99.90;;;;;;5030622;28;20053;-69
2021/12/17 12:36:54;;;;;;;12.27;6.47;;;10.10;99.90;;;;;;5034096;28;20049;-70
2021/12/17 12:39:26;;;;;;;12.13;6.63;;;10.10;99.90;;;;;;5043441;28;20484;-70
2021/12/17 12:42:16;;;;;;;13.15;7.40;;;10.10;99.90;;;;;;5016426;28;20036;-70
2021/12/17 12:44:42;;;;;;;15.98;7.65;;;10.10;99.90;;;;;;5046078;28;20103;-70
2021/12/17 12:47:11;;;;;;;13.18;7.43;;;10.10;99.90;;;;;;5040716;28;20049;-70
2021/12/17 12:49:48;;;;;;;12.85;7.43;;;10.10;99.90;;;;;;5030851;28;20053;-70
2021/12/17 12:52:32;;;;;;;12.80;7.45;;;10.20;99.90;;;;;;5046241;28;20080;-70
2021/12/17 12:55:07;;;;;;;13.30;8.23;;;10.20;99.90;;;;;;5050288;28;20066;-70
2021/12/17 12:57:41;;;;;;;15.52;8.10;;;10.20;99.90;;;;;;5033589;28;20042;-70
2021/12/17 13:00:28;;;;;;;15.25;8.30;;;10.10;99.90;;;;;;5028448;28;20050;-70
2021/12/17 13:03:03;;;;;;;14.95;8.95;;;10.10;99.90;;;;;;5020681;28;20068;-70
2021/12/17 13:05:29;;;;;;;;;;;10.00;99.90;;;;;;5035705;28;20087;-69
2021/12/17 13:07:57;;;;;;;15.05;8.65;;;10.00;99.90;;;;;;5047882;28;20287;-69
2021/12/17 13:10:50;;;;;;;15.70;8.20;;;10.00;99.90;;;;;;5049988;28;20088;-69
2021/12/17 13:23:53;;;;;;;13.02;7.07;;;10.10;99.90;;;;;;5044419;28;20053;-69
2021/12/17 13:26:23;;;;;;;13.18;7.82;;;10.00;99.90;;;;;;5048182;28;20041;-69
2021/12/17 13:28:55;;;;;;;13.82;8.43;;;10.00;99.90;;;;;;5039009;28;20457;-67
2021/12/17 13:31:40;;;;;;;15.27;8.70;;;10.00;99.90;;;;;;5037106;28;20037;-68
2021/12/17 13:34:29;;;;;;;14.60;8.23;;;10.00;99.90;;;;;;5041927;28;20475;-68
2021/12/17 13:37:04;;;;;;;17.15;9.07;;;9.90;99.90;;;;;;5028285;28;20049;-69
2021/12/17 13:39:34;;;;;;;16.88;8.57;;;9.90;99.90;;;;;;5037352;28;20040;-72
2021/12/17 13:42:01;;;;;;;16.85;8.90;;;9.90;99.90;;;;;;5036762;28;20487;-69
2021/12/17 13:44:37;;;;;;;16.65;9.43;;;9.90;99.90;;;;;;5033753;28;20033;-69
2021/12/17 13:47:13;;;;;;;15.15;8.63;;;9.90;99.90;;;;;;5032711;28;20464;-69
2021/12/17 13:49:47;;;;;;;16.08;8.98;;;9.90;99.90;;;;;;5040740;28;20068;-70
2021/12/17 13:52:13;;;;;;;14.40;8.32;;;9.90;99.90;;;;;;5047930;28;20103;-69
2021/12/17 13:54:39;;;;;;;16.77;9.60;;;9.80;99.90;;;;;;5029876;28;20508;-71
2021/12/17 13:57:06;;;;;;;12.65;7.78;;;9.80;99.90;;;;;;5046209;28;20052;-70
2021/12/17 13:59:34;;;;;;;15.20;8.93;;;9.90;99.90;;;;;;5043598;28;20061;-70
2021/12/17 14:02:17;;;;;;;14.57;8.77;;;9.80;99.90;;;;;;5040224;28;20123;-68
2021/12/17 14:05:05;;;;;;;14.60;8.73;;;9.80;99.90;;;;;;5049664;28;20052;-68
2021/12/17 14:07:33;;;;;;;16.73;9.02;;;9.80;99.90;;;;;;5042104;28;20123;-68
2021/12/17 14:10:11;;;;;;;16.25;8.65;;;9.80;99.90;;;;;;5039624;28;20057;-67
2021/12/17 14:12:39;;;;;;;15.18;9.15;;;9.80;99.90;;;;;;5044199;28;20052;-67
2021/12/17 14:15:17;;;;;;;14.55;8.45;;;9.80;99.90;;;;;;5048111;28;20106;-67
2021/12/17 14:17:46;;;;;;;17.35;9.18;;;9.80;99.90;;;;;;5047487;28;20504;-67
2021/12/17 14:20:15;;;;;;;17.08;8.70;;;9.80;99.90;;;;;;5044775;28;20045;-68
2021/12/17 14:22:42;;;;;;;18.73;9.88;;;9.80;99.90;;;;;;5032414;28;20143;-68
2021/12/17 14:25:25;;;;;;;16.50;9.65;;;9.80;99.90;;;;;;5031242;28;20051;-68
2021/12/17 14:27:51;;;;;;;16.67;8.85;;;9.80;99.90;;;;;;5027354;28;20065;-68
2021/12/17 14:30:28;;;;;;;14.77;8.98;;;9.70;99.90;;;;;;5029534;28;20072;-68
2021/12/17 14:32:54;;;;;;;13.75;8.20;;;9.80;99.90;;;;;;5029933;28;20042;-68
2021/12/17 14:35:41;;;;;;;16.00;8.68;;;9.80;99.90;;;;;;5028025;28;20041;-68
2021/12/17 14:38:07;;;;;;;15.30;8.13;;;9.80;99.90;;;;;;5046875;28;20182;-68
2021/12/17 14:40:49;;;;;;;13.82;8.07;;;9.80;99.90;;;;;;5047347;28;20136;-69
2021/12/17 14:43:37;;;;;;;14.73;7.82;;;9.80;99.90;;;;;;5029049;28;20049;-69
2021/12/17 14:49:12;;;;;;;13.75;7.90;;;9.70;99.90;;;;;;5046675;28;20049;-68
2021/12/17 15:00:24;;;;;;;12.88;7.28;;;9.70;99.90;;;;;;5020183;28;20045;-69
2021/12/17 15:05:18;;;;;;;12.45;7.80;;;9.70;99.90;;;;;;5047531;28;20076;-69
2021/12/17 15:07:43;;;;;;;13.30;7.78;;;9.70;99.90;;;;;;5041988;28;20041;-69
2021/12/17 15:10:11;;;;;;;14.27;7.93;;;9.70;99.90;;;;;;5029675;28;20049;-69
2021/12/17 15:12:40;;;;;;;12.63;7.53;;;9.70;99.90;;;;;;5028892;28;20103;-69
2021/12/17 15:15:13;;;;;;;13.15;7.68;;;9.70;99.90;;;;;;5028493;28;20049;-69
2021/12/17 15:17:39;;;;;;;11.85;6.78;;;9.70;99.90;;;;;;5039795;28;20093;-68
2021/12/17 15:20:08;;;;;;;11.20;6.65;;;9.70;99.90;;;;;;5034733;28;20052;-68
2021/12/17 15:22:34;;;;;;;11.15;6.72;;;9.70;99.90;;;;;;5035521;28;20064;-68
2021/12/17 15:24:59;;;;;;;10.13;6.05;;;9.70;99.90;;;;;;5045018;28;20045;-67
2021/12/17 15:27:27;;;;;;;11.43;6.53;;;9.70;99.90;;;;;;5052485;28;20049;-67
2021/12/17 15:29:53;;;;;;;11.48;5.70;;;9.60;99.90;;;;;;5051233;28;20407;-68
2021/12/17 15:32:18;;;;;;;12.82;6.18;;;9.60;99.90;;;;;;5044680;28;20045;-68
2021/12/17 15:34:44;;;;;;;8.85;5.03;;;9.60;99.90;;;;;;5047382;28;20106;-67
2021/12/17 15:37:09;;;;;;;7.25;4.28;;;9.60;99.90;;;;;;5027572;28;20048;-69
2021/12/17 15:39:35;;;;;;;7.55;4.15;;;9.60;99.90;;;;;;5034645;28;20461;-69
2021/12/17 15:42:00;;;;;;;8.20;4.38;;;9.50;99.90;;;;;;5048725;28;20039;-68
2021/12/17 15:44:26;;;;;;;6.60;3.80;;;9.50;99.90;;;;;;5051681;28;20067;-68
2021/12/17 15:46:52;;;;;;;7.38;4.22;;;9.50;99.90;;;;;;5040769;28;20037;-69
2021/12/17 15:49:17;;;;;;;8.02;4.40;;;9.50;99.90;;;;;;5033721;28;20049;-70
2021/12/17 15:51:43;;;;;;;6.95;4.13;;;9.60;99.90;;;;;;5033029;28;20412;-68
2021/12/17 15:54:08;;;;;;;7.38;4.40;;;9.50;99.90;;;;;;5040614;28;20745;-69
2021/12/17 15:56:34;;;;;;;7.90;4.97;;;9.50;99.90;;;;;;5044053;28;20136;-69
2021/12/17 15:59:00;;;;;;;7.28;4.68;;;9.50;99.90;;;;;;5041169;28;20060;-69
2021/12/17 16:01:26;;;;;;;6.93;4.70;;;9.50;99.90;;;;;;5039644;28;20129;-67
2021/12/17 16:03:51;;;;;;;8.23;5.18;;;9.50;99.90;;;;;;5041755;28;20787;-69